sensor_id;sensor_type;location;lat;lon;timestamp;temperature;humidity
12329;DHT22;6230;52.390;10.256;2023-04-25T00:02:21;11.80;64.50
12329;DHT22;6230;52.390;10.256;2023-04-25T00:04:47;11.80;64.50
12329;DHT22;6230;52.390;10.256;2023-04-25T00:07:14;11.80;64.50
12329;DHT22;6230;52.390;10.256;2023-04-25T00:09:41;11.80;64.60
12329;DHT22;6230;52.390;10.256;2023-04-25T00:12:06;11.80;64.60
12329;DHT22;6230;52.390;10.256;2023-04-25T00:14:32;11.80;64.50
12329;DHT22;6230;52.390;10.256;2023-04-25T00:17:01;11.80;64.60
12329;DHT22;6230;52.390;10.256;2023-04-25T00:19:28;11.80;64.60
12329;DHT22;6230;52.390;10.256;2023-04-25T00:21:56;11.70;64.60
12329;DHT22;6230;52.390;10.256;2023-04-25T00:24:22;11.70;64.70
12329;DHT22;6230;52.390;10.256;2023-04-25T00:26:47;11.70;64.70
12329;DHT22;6230;52.390;10.256;2023-04-25T00:29:13;11.70;64.60
12329;DHT22;6230;52.390;10.256;2023-04-25T00:31:38;11.60;64.60
12329;DHT22;6230;52.390;10.256;2023-04-25T00:34:04;11.60;64.70
12329;DHT22;6230;52.390;10.256;2023-04-25T00:36:29;11.60;64.70
12329;DHT22;6230;52.390;10.256;2023-04-25T00:38:55;11.60;64.80
12329;DHT22;6230;52.390;10.256;2023-04-25T00:41:21;11.50;64.80
12329;DHT22;6230;52.390;10.256;2023-04-25T00:43:48;11.50;64.90
12329;DHT22;6230;52.390;10.256;2023-04-25T00:46:14;11.50;64.90
12329;DHT22;6230;52.390;10.256;2023-04-25T00:48:39;11.50;65.00
12329;DHT22;6230;52.390;10.256;2023-04-25T00:51:05;11.50;65.00
12329;DHT22;6230;52.390;10.256;2023-04-25T00:53:31;11.50;64.90
12329;DHT22;6230;52.390;10.256;2023-04-25T00:55:57;11.50;64.90
12329;DHT22;6230;52.390;10.256;2023-04-25T00:58:24;11.50;64.90
12329;DHT22;6230;52.390;10.256;2023-04-25T01:00:51;11.50;65.00
12329;DHT22;6230;52.390;10.256;2023-04-25T01:03:18;11.50;65.00
12329;DHT22;6230;52.390;10.256;2023-04-25T01:05:46;11.50;65.00
12329;DHT22;6230;52.390;10.256;2023-04-25T01:08:12;11.40;65.00
12329;DHT22;6230;52.390;10.256;2023-04-25T01:10:38;11.40;65.10
12329;DHT22;6230;52.390;10.256;2023-04-25T01:13:04;11.40;65.10
12329;DHT22;6230;52.390;10.256;2023-04-25T01:15:29;11.40;65.20
12329;DHT22;6230;52.390;10.256;2023-04-25T01:17:55;11.40;65.20
12329;DHT22;6230;52.390;10.256;2023-04-25T01:20:22;11.40;65.30
12329;DHT22;6230;52.390;10.256;2023-04-25T01:22:49;11.40;65.30
12329;DHT22;6230;52.390;10.256;2023-04-25T01:25:15;11.40;65.20
12329;DHT22;6230;52.390;10.256;2023-04-25T01:27:41;11.40;65.30
12329;DHT22;6230;52.390;10.256;2023-04-25T01:30:07;11.40;65.30
12329;DHT22;6230;52.390;10.256;2023-04-25T01:32:33;11.40;65.30
12329;DHT22;6230;52.390;10.256;2023-04-25T01:35:05;11.40;65.30
12329;DHT22;6230;52.390;10.256;2023-04-25T01:37:41;11.40;65.30
12329;DHT22;6230;52.390;10.256;2023-04-25T01:40:09;11.40;65.40
12329;DHT22;6230;52.390;10.256;2023-04-25T01:42:37;11.40;65.30
12329;DHT22;6230;52.390;10.256;2023-04-25T01:45:03;11.40;65.30
12329;DHT22;6230;52.390;10.256;2023-04-25T01:47:28;11.40;65.40
12329;DHT22;6230;52.390;10.256;2023-04-25T01:49:54;11.40;65.40
12329;DHT22;6230;52.390;10.256;2023-04-25T01:52:20;11.40;65.40
12329;DHT22;6230;52.390;10.256;2023-04-25T01:54:46;11.40;65.30
12329;DHT22;6230;52.390;10.256;2023-04-25T01:57:12;11.30;65.30
12329;DHT22;6230;52.390;10.256;2023-04-25T01:59:38;11.30;65.30
12329;DHT22;6230;52.390;10.256;2023-04-25T02:02:03;11.30;65.40
12329;DHT22;6230;52.390;10.256;2023-04-25T02:04:32;11.40;65.50
12329;DHT22;6230;52.390;10.256;2023-04-25T02:06:58;11.40;65.50
12329;DHT22;6230;52.390;10.256;2023-04-25T02:09:23;11.40;65.40
12329;DHT22;6230;52.390;10.256;2023-04-25T02:11:49;11.40;65.40
12329;DHT22;6230;52.390;10.256;2023-04-25T02:14:15;11.30;65.30
12329;DHT22;6230;52.390;10.256;2023-04-25T02:16:40;11.30;65.40
12329;DHT22;6230;52.390;10.256;2023-04-25T02:19:06;11.30;65.50
12329;DHT22;6230;52.390;10.256;2023-04-25T02:21:32;11.30;65.50
12329;DHT22;6230;52.390;10.256;2023-04-25T02:23:58;11.30;65.60
12329;DHT22;6230;52.390;10.256;2023-04-25T02:26:23;11.30;65.60
12329;DHT22;6230;52.390;10.256;2023-04-25T02:28:50;11.30;65.60
12329;DHT22;6230;52.390;10.256;2023-04-25T02:31:15;11.30;65.70
12329;DHT22;6230;52.390;10.256;2023-04-25T02:33:41;11.30;65.60
12329;DHT22;6230;52.390;10.256;2023-04-25T02:36:07;11.30;65.70
12329;DHT22;6230;52.390;10.256;2023-04-25T02:38:33;11.30;65.70
12329;DHT22;6230;52.390;10.256;2023-04-25T02:40:58;11.30;65.80
12329;DHT22;6230;52.390;10.256;2023-04-25T02:43:24;11.30;65.80
12329;DHT22;6230;52.390;10.256;2023-04-25T02:45:49;11.40;65.90
12329;DHT22;6230;52.390;10.256;2023-04-25T02:48:15;11.30;65.80
12329;DHT22;6230;52.390;10.256;2023-04-25T02:50:41;11.30;65.90
12329;DHT22;6230;52.390;10.256;2023-04-25T02:53:06;11.20;66.00
12329;DHT22;6230;52.390;10.256;2023-04-25T02:55:32;11.20;66.20
12329;DHT22;6230;52.390;10.256;2023-04-25T02:57:57;11.20;66.40
12329;DHT22;6230;52.390;10.256;2023-04-25T03:00:23;11.20;66.60
12329;DHT22;6230;52.390;10.256;2023-04-25T03:02:49;11.20;66.70
12329;DHT22;6230;52.390;10.256;2023-04-25T03:05:14;11.20;67.60
12329;DHT22;6230;52.390;10.256;2023-04-25T03:07:40;11.20;67.00
12329;DHT22;6230;52.390;10.256;2023-04-25T03:10:09;11.20;67.10
12329;DHT22;6230;52.390;10.256;2023-04-25T03:12:34;11.20;67.10
12329;DHT22;6230;52.390;10.256;2023-04-25T03:15:00;11.20;67.10
12329;DHT22;6230;52.390;10.256;2023-04-25T03:17:26;11.20;67.20
12329;DHT22;6230;52.390;10.256;2023-04-25T03:19:51;11.20;67.30
12329;DHT22;6230;52.390;10.256;2023-04-25T03:22:17;11.10;67.20
12329;DHT22;6230;52.390;10.256;2023-04-25T03:24:42;11.10;67.20
12329;DHT22;6230;52.390;10.256;2023-04-25T03:27:08;11.00;67.20
12329;DHT22;6230;52.390;10.256;2023-04-25T03:29:34;11.00;67.30
12329;DHT22;6230;52.390;10.256;2023-04-25T03:31:59;11.00;67.30
12329;DHT22;6230;52.390;10.256;2023-04-25T03:34:25;11.00;67.30
12329;DHT22;6230;52.390;10.256;2023-04-25T03:36:51;11.00;67.30
12329;DHT22;6230;52.390;10.256;2023-04-25T03:39:16;11.00;67.20
12329;DHT22;6230;52.390;10.256;2023-04-25T03:41:42;11.00;67.20
12329;DHT22;6230;52.390;10.256;2023-04-25T03:44:08;11.00;67.10
12329;DHT22;6230;52.390;10.256;2023-04-25T03:46:33;11.10;67.10
12329;DHT22;6230;52.390;10.256;2023-04-25T03:48:59;11.00;67.00
12329;DHT22;6230;52.390;10.256;2023-04-25T03:51:25;11.00;66.90
12329;DHT22;6230;52.390;10.256;2023-04-25T03:53:51;11.10;67.40
12329;DHT22;6230;52.390;10.256;2023-04-25T03:56:17;11.10;66.90
12329;DHT22;6230;52.390;10.256;2023-04-25T03:58:42;11.10;66.80
12329;DHT22;6230;52.390;10.256;2023-04-25T04:01:08;11.10;66.80
12329;DHT22;6230;52.390;10.256;2023-04-25T04:03:34;11.10;66.80
12329;DHT22;6230;52.390;10.256;2023-04-25T04:06:04;11.10;66.70
12329;DHT22;6230;52.390;10.256;2023-04-25T04:08:31;11.10;66.60
12329;DHT22;6230;52.390;10.256;2023-04-25T04:10:59;11.10;66.60
12329;DHT22;6230;52.390;10.256;2023-04-25T04:13:26;11.10;66.60
12329;DHT22;6230;52.390;10.256;2023-04-25T04:15:52;11.10;66.50
12329;DHT22;6230;52.390;10.256;2023-04-25T04:18:17;11.10;66.50
12329;DHT22;6230;52.390;10.256;2023-04-25T04:20:43;11.20;66.50
12329;DHT22;6230;52.390;10.256;2023-04-25T04:23:08;11.10;66.40
12329;DHT22;6230;52.390;10.256;2023-04-25T04:25:34;11.10;66.40
12329;DHT22;6230;52.390;10.256;2023-04-25T04:27:59;11.10;66.50
12329;DHT22;6230;52.390;10.256;2023-04-25T04:30:26;11.10;66.60
12329;DHT22;6230;52.390;10.256;2023-04-25T04:32:57;11.10;66.60
12329;DHT22;6230;52.390;10.256;2023-04-25T04:35:24;11.00;66.70
12329;DHT22;6230;52.390;10.256;2023-04-25T04:37:50;11.00;66.60
12329;DHT22;6230;52.390;10.256;2023-04-25T04:40:17;11.10;66.80
12329;DHT22;6230;52.390;10.256;2023-04-25T04:42:43;11.10;66.70
12329;DHT22;6230;52.390;10.256;2023-04-25T04:45:10;11.10;66.70
12329;DHT22;6230;52.390;10.256;2023-04-25T04:47:36;11.00;66.60
12329;DHT22;6230;52.390;10.256;2023-04-25T04:50:03;11.00;66.70
12329;DHT22;6230;52.390;10.256;2023-04-25T04:52:29;11.00;66.70
12329;DHT22;6230;52.390;10.256;2023-04-25T04:54:55;11.00;66.70
12329;DHT22;6230;52.390;10.256;2023-04-25T04:57:20;11.00;66.70
12329;DHT22;6230;52.390;10.256;2023-04-25T04:59:46;11.00;66.60
12329;DHT22;6230;52.390;10.256;2023-04-25T05:02:11;11.00;66.60
12329;DHT22;6230;52.390;10.256;2023-04-25T05:04:37;11.00;66.50
12329;DHT22;6230;52.390;10.256;2023-04-25T05:07:03;11.00;67.30
12329;DHT22;6230;52.390;10.256;2023-04-25T05:09:28;11.00;66.40
12329;DHT22;6230;52.390;10.256;2023-04-25T05:11:54;11.00;66.30
12329;DHT22;6230;52.390;10.256;2023-04-25T05:14:19;11.00;66.20
12329;DHT22;6230;52.390;10.256;2023-04-25T05:16:45;11.00;66.10
12329;DHT22;6230;52.390;10.256;2023-04-25T05:19:10;11.00;66.10
12329;DHT22;6230;52.390;10.256;2023-04-25T05:21:36;11.00;66.00
12329;DHT22;6230;52.390;10.256;2023-04-25T05:24:01;11.00;65.90
12329;DHT22;6230;52.390;10.256;2023-04-25T05:26:27;11.00;65.90
12329;DHT22;6230;52.390;10.256;2023-04-25T05:28:57;11.10;66.00
12329;DHT22;6230;52.390;10.256;2023-04-25T05:31:22;11.10;66.00
12329;DHT22;6230;52.390;10.256;2023-04-25T05:33:48;11.10;65.90
12329;DHT22;6230;52.390;10.256;2023-04-25T05:36:13;11.10;65.70
12329;DHT22;6230;52.390;10.256;2023-04-25T05:38:39;11.10;65.60
12329;DHT22;6230;52.390;10.256;2023-04-25T05:41:04;11.10;65.50
12329;DHT22;6230;52.390;10.256;2023-04-25T05:43:30;11.10;65.50
12329;DHT22;6230;52.390;10.256;2023-04-25T05:45:55;11.10;65.30
12329;DHT22;6230;52.390;10.256;2023-04-25T05:48:21;11.10;65.20
12329;DHT22;6230;52.390;10.256;2023-04-25T05:50:46;11.10;65.10
12329;DHT22;6230;52.390;10.256;2023-04-25T05:53:12;11.10;65.10
12329;DHT22;6230;52.390;10.256;2023-04-25T05:55:38;11.20;65.80
12329;DHT22;6230;52.390;10.256;2023-04-25T05:58:05;11.10;64.80
12329;DHT22;6230;52.390;10.256;2023-04-25T06:00:32;11.20;64.70
12329;DHT22;6230;52.390;10.256;2023-04-25T06:02:57;11.20;64.60
12329;DHT22;6230;52.390;10.256;2023-04-25T06:05:23;11.20;64.50
12329;DHT22;6230;52.390;10.256;2023-04-25T06:07:48;11.20;64.40
12329;DHT22;6230;52.390;10.256;2023-04-25T06:10:14;11.20;64.50
12329;DHT22;6230;52.390;10.256;2023-04-25T06:12:40;11.20;64.40
12329;DHT22;6230;52.390;10.256;2023-04-25T06:15:06;11.30;64.40
12329;DHT22;6230;52.390;10.256;2023-04-25T06:17:32;11.30;64.40
12329;DHT22;6230;52.390;10.256;2023-04-25T06:19:57;11.40;64.20
12329;DHT22;6230;52.390;10.256;2023-04-25T06:22:23;11.50;63.90
12329;DHT22;6230;52.390;10.256;2023-04-25T06:24:48;11.50;63.70
12329;DHT22;6230;52.390;10.256;2023-04-25T06:27:14;11.60;63.40
12329;DHT22;6230;52.390;10.256;2023-04-25T06:29:40;11.60;63.20
12329;DHT22;6230;52.390;10.256;2023-04-25T06:32:05;11.60;63.00
12329;DHT22;6230;52.390;10.256;2023-04-25T06:34:31;11.70;62.60
12329;DHT22;6230;52.390;10.256;2023-04-25T06:36:56;11.70;62.20
12329;DHT22;6230;52.390;10.256;2023-04-25T06:39:22;11.70;62.00
12329;DHT22;6230;52.390;10.256;2023-04-25T06:41:49;11.70;61.90
12329;DHT22;6230;52.390;10.256;2023-04-25T06:44:14;11.70;61.60
12329;DHT22;6230;52.390;10.256;2023-04-25T06:46:40;11.70;61.40
12329;DHT22;6230;52.390;10.256;2023-04-25T06:49:06;11.70;61.20
12329;DHT22;6230;52.390;10.256;2023-04-25T06:51:31;11.80;60.80
12329;DHT22;6230;52.390;10.256;2023-04-25T06:53:57;11.70;60.60
12329;DHT22;6230;52.390;10.256;2023-04-25T06:56:23;11.80;60.70
12329;DHT22;6230;52.390;10.256;2023-04-25T06:58:49;11.80;60.40
12329;DHT22;6230;52.390;10.256;2023-04-25T07:01:14;11.90;60.20
12329;DHT22;6230;52.390;10.256;2023-04-25T07:03:40;11.80;59.90
12329;DHT22;6230;52.390;10.256;2023-04-25T07:06:06;11.80;59.70
12329;DHT22;6230;52.390;10.256;2023-04-25T07:08:31;11.80;59.40
12329;DHT22;6230;52.390;10.256;2023-04-25T07:10:57;11.80;59.20
12329;DHT22;6230;52.390;10.256;2023-04-25T07:13:22;11.80;59.00
12329;DHT22;6230;52.390;10.256;2023-04-25T07:15:48;11.80;59.10
12329;DHT22;6230;52.390;10.256;2023-04-25T07:18:14;11.80;58.90
12329;DHT22;6230;52.390;10.256;2023-04-25T07:20:39;11.90;58.80
12329;DHT22;6230;52.390;10.256;2023-04-25T07:23:05;11.90;58.30
12329;DHT22;6230;52.390;10.256;2023-04-25T07:25:31;12.00;58.10
12329;DHT22;6230;52.390;10.256;2023-04-25T07:27:56;12.00;57.60
12329;DHT22;6230;52.390;10.256;2023-04-25T07:30:22;12.00;57.50
12329;DHT22;6230;52.390;10.256;2023-04-25T07:32:48;12.00;57.40
12329;DHT22;6230;52.390;10.256;2023-04-25T07:35:14;12.00;57.40
12329;DHT22;6230;52.390;10.256;2023-04-25T07:37:39;12.10;57.20
12329;DHT22;6230;52.390;10.256;2023-04-25T07:40:05;12.10;57.00
12329;DHT22;6230;52.390;10.256;2023-04-25T07:42:32;12.10;56.70
12329;DHT22;6230;52.390;10.256;2023-04-25T07:44:57;12.10;56.70
12329;DHT22;6230;52.390;10.256;2023-04-25T07:47:23;12.10;56.60
12329;DHT22;6230;52.390;10.256;2023-04-25T07:49:48;12.00;56.30
12329;DHT22;6230;52.390;10.256;2023-04-25T07:52:14;12.00;56.40
12329;DHT22;6230;52.390;10.256;2023-04-25T07:54:40;12.00;56.40
12329;DHT22;6230;52.390;10.256;2023-04-25T07:57:05;12.00;56.40
12329;DHT22;6230;52.390;10.256;2023-04-25T07:59:32;12.10;56.40
12329;DHT22;6230;52.390;10.256;2023-04-25T08:01:57;12.20;56.40
12329;DHT22;6230;52.390;10.256;2023-04-25T08:04:23;12.30;56.30
12329;DHT22;6230;52.390;10.256;2023-04-25T08:06:49;12.40;56.10
12329;DHT22;6230;52.390;10.256;2023-04-25T08:09:15;12.40;55.80
12329;DHT22;6230;52.390;10.256;2023-04-25T08:11:41;12.40;55.80
12329;DHT22;6230;52.390;10.256;2023-04-25T08:14:07;12.30;55.80
12329;DHT22;6230;52.390;10.256;2023-04-25T08:16:32;12.30;55.90
12329;DHT22;6230;52.390;10.256;2023-04-25T08:18:59;12.30;56.00
12329;DHT22;6230;52.390;10.256;2023-04-25T08:21:25;12.30;56.20
12329;DHT22;6230;52.390;10.256;2023-04-25T08:23:52;12.30;56.00
12329;DHT22;6230;52.390;10.256;2023-04-25T08:26:18;12.30;55.90
12329;DHT22;6230;52.390;10.256;2023-04-25T08:28:43;12.30;55.90
12329;DHT22;6230;52.390;10.256;2023-04-25T08:31:09;12.40;56.10
12329;DHT22;6230;52.390;10.256;2023-04-25T08:33:34;12.40;55.80
12329;DHT22;6230;52.390;10.256;2023-04-25T08:36:00;12.50;55.50
12329;DHT22;6230;52.390;10.256;2023-04-25T08:38:25;12.60;55.60
12329;DHT22;6230;52.390;10.256;2023-04-25T08:40:51;12.60;55.40
12329;DHT22;6230;52.390;10.256;2023-04-25T08:43:19;12.60;55.10
12329;DHT22;6230;52.390;10.256;2023-04-25T08:45:45;12.60;55.10
12329;DHT22;6230;52.390;10.256;2023-04-25T08:48:15;12.70;55.30
12329;DHT22;6230;52.390;10.256;2023-04-25T08:50:53;12.90;55.30
12329;DHT22;6230;52.390;10.256;2023-04-25T08:53:25;13.10;55.00
12329;DHT22;6230;52.390;10.256;2023-04-25T08:55:51;13.30;54.60
12329;DHT22;6230;52.390;10.256;2023-04-25T08:58:18;13.40;54.40
12329;DHT22;6230;52.390;10.256;2023-04-25T09:00:46;13.50;54.00
12329;DHT22;6230;52.390;10.256;2023-04-25T09:03:12;13.50;53.50
12329;DHT22;6230;52.390;10.256;2023-04-25T09:05:39;13.50;53.20
12329;DHT22;6230;52.390;10.256;2023-04-25T09:08:05;13.50;53.00
12329;DHT22;6230;52.390;10.256;2023-04-25T09:10:31;13.40;52.50
12329;DHT22;6230;52.390;10.256;2023-04-25T09:13:08;13.30;52.20
12329;DHT22;6230;52.390;10.256;2023-04-25T09:15:53;13.30;51.80
12329;DHT22;6230;52.390;10.256;2023-04-25T09:18:29;13.30;51.50
12329;DHT22;6230;52.390;10.256;2023-04-25T09:20:56;13.20;51.50
12329;DHT22;6230;52.390;10.256;2023-04-25T09:23:22;13.10;51.50
12329;DHT22;6230;52.390;10.256;2023-04-25T09:25:49;13.10;51.40
12329;DHT22;6230;52.390;10.256;2023-04-25T09:28:15;13.00;51.30
12329;DHT22;6230;52.390;10.256;2023-04-25T09:30:41;13.00;51.20
12329;DHT22;6230;52.390;10.256;2023-04-25T09:33:10;12.90;51.20
12329;DHT22;6230;52.390;10.256;2023-04-25T09:35:41;12.80;51.20
12329;DHT22;6230;52.390;10.256;2023-04-25T09:38:09;12.80;51.10
12329;DHT22;6230;52.390;10.256;2023-04-25T09:40:42;12.80;51.30
12329;DHT22;6230;52.390;10.256;2023-04-25T09:43:26;12.70;51.20
12329;DHT22;6230;52.390;10.256;2023-04-25T09:45:54;12.80;51.20
12329;DHT22;6230;52.390;10.256;2023-04-25T09:48:24;12.80;51.20
12329;DHT22;6230;52.390;10.256;2023-04-25T09:51:09;12.70;51.30
12329;DHT22;6230;52.390;10.256;2023-04-25T09:53:43;12.60;51.20
12329;DHT22;6230;52.390;10.256;2023-04-25T09:56:11;12.60;51.40
12329;DHT22;6230;52.390;10.256;2023-04-25T09:58:38;12.60;51.50
12329;DHT22;6230;52.390;10.256;2023-04-25T10:01:06;12.50;51.50
12329;DHT22;6230;52.390;10.256;2023-04-25T10:03:34;12.60;51.60
12329;DHT22;6230;52.390;10.256;2023-04-25T10:06:02;12.70;51.70
12329;DHT22;6230;52.390;10.256;2023-04-25T10:08:37;12.90;51.60
12329;DHT22;6230;52.390;10.256;2023-04-25T10:11:04;13.10;51.20
12329;DHT22;6230;52.390;10.256;2023-04-25T10:13:31;13.40;51.00
12329;DHT22;6230;52.390;10.256;2023-04-25T10:15:58;13.70;50.90
12329;DHT22;6230;52.390;10.256;2023-04-25T10:18:25;14.00;50.70
12329;DHT22;6230;52.390;10.256;2023-04-25T10:20:53;14.20;49.90
12329;DHT22;6230;52.390;10.256;2023-04-25T10:23:20;14.50;49.20
12329;DHT22;6230;52.390;10.256;2023-04-25T10:25:46;14.60;48.60
12329;DHT22;6230;52.390;10.256;2023-04-25T10:28:11;14.80;48.10
12329;DHT22;6230;52.390;10.256;2023-04-25T10:30:37;14.70;47.10
12329;DHT22;6230;52.390;10.256;2023-04-25T10:33:16;14.60;46.90
12329;DHT22;6230;52.390;10.256;2023-04-25T10:35:45;14.50;46.70
12329;DHT22;6230;52.390;10.256;2023-04-25T10:38:11;14.30;46.70
12329;DHT22;6230;52.390;10.256;2023-04-25T10:40:39;14.20;46.80
12329;DHT22;6230;52.390;10.256;2023-04-25T10:46:24;14.00;46.80
12329;DHT22;6230;52.390;10.256;2023-04-25T10:54:07;13.80;47.50
12329;DHT22;6230;52.390;10.256;2023-04-25T10:56:33;13.80;47.60
12329;DHT22;6230;52.390;10.256;2023-04-25T10:59:13;13.80;47.90
12329;DHT22;6230;52.390;10.256;2023-04-25T11:01:40;13.80;47.70
12329;DHT22;6230;52.390;10.256;2023-04-25T11:04:07;13.70;47.70
12329;DHT22;6230;52.390;10.256;2023-04-25T11:06:46;13.70;47.70
12329;DHT22;6230;52.390;10.256;2023-04-25T11:09:15;13.60;47.70
12329;DHT22;6230;52.390;10.256;2023-04-25T11:11:41;13.60;47.80
12329;DHT22;6230;52.390;10.256;2023-04-25T11:14:06;13.50;47.90
12329;DHT22;6230;52.390;10.256;2023-04-25T11:16:32;13.40;48.00
12329;DHT22;6230;52.390;10.256;2023-04-25T11:18:58;13.30;48.20
12329;DHT22;6230;52.390;10.256;2023-04-25T11:21:27;13.20;48.30
12329;DHT22;6230;52.390;10.256;2023-04-25T11:23:54;13.20;48.70
12329;DHT22;6230;52.390;10.256;2023-04-25T11:26:22;13.20;49.10
12329;DHT22;6230;52.390;10.256;2023-04-25T11:28:49;13.30;49.10
12329;DHT22;6230;52.390;10.256;2023-04-25T11:31:14;13.30;48.70
12329;DHT22;6230;52.390;10.256;2023-04-25T11:33:40;13.30;48.70
12329;DHT22;6230;52.390;10.256;2023-04-25T11:36:06;13.40;48.80
12329;DHT22;6230;52.390;10.256;2023-04-25T11:38:32;13.40;48.90
12329;DHT22;6230;52.390;10.256;2023-04-25T11:40:58;13.50;49.00
12329;DHT22;6230;52.390;10.256;2023-04-25T11:43:23;13.60;49.00
12329;DHT22;6230;52.390;10.256;2023-04-25T11:45:50;13.70;48.60
12329;DHT22;6230;52.390;10.256;2023-04-25T11:48:17;13.70;48.40
12329;DHT22;6230;52.390;10.256;2023-04-25T11:50:43;13.80;47.90
12329;DHT22;6230;52.390;10.256;2023-04-25T11:53:09;13.90;47.70
12329;DHT22;6230;52.390;10.256;2023-04-25T11:55:36;14.00;47.50
12329;DHT22;6230;52.390;10.256;2023-04-25T11:58:02;14.10;47.30
12329;DHT22;6230;52.390;10.256;2023-04-25T12:00:28;14.10;47.10
12329;DHT22;6230;52.390;10.256;2023-04-25T12:02:55;14.20;46.90
12329;DHT22;6230;52.390;10.256;2023-04-25T12:05:30;14.20;46.90
12329;DHT22;6230;52.390;10.256;2023-04-25T12:08:09;14.20;46.80
12329;DHT22;6230;52.390;10.256;2023-04-25T12:10:37;14.20;46.90
12329;DHT22;6230;52.390;10.256;2023-04-25T12:13:18;14.20;46.60
12329;DHT22;6230;52.390;10.256;2023-04-25T12:15:44;14.20;46.40
12329;DHT22;6230;52.390;10.256;2023-04-25T12:18:09;14.10;46.50
12329;DHT22;6230;52.390;10.256;2023-04-25T12:20:36;14.00;46.70
12329;DHT22;6230;52.390;10.256;2023-04-25T12:23:05;13.90;46.70
12329;DHT22;6230;52.390;10.256;2023-04-25T12:25:40;13.80;47.00
12329;DHT22;6230;52.390;10.256;2023-04-25T12:33:20;13.70;47.30
12329;DHT22;6230;52.390;10.256;2023-04-25T12:35:47;13.60;47.60
12329;DHT22;6230;52.390;10.256;2023-04-25T12:38:27;13.60;46.70
12329;DHT22;6230;52.390;10.256;2023-04-25T12:40:54;13.50;46.40
12329;DHT22;6230;52.390;10.256;2023-04-25T12:43:20;13.60;46.60
12329;DHT22;6230;52.390;10.256;2023-04-25T12:45:53;13.80;46.70
12329;DHT22;6230;52.390;10.256;2023-04-25T12:48:20;14.00;46.40
12329;DHT22;6230;52.390;10.256;2023-04-25T12:50:46;14.30;45.90
12329;DHT22;6230;52.390;10.256;2023-04-25T12:53:15;14.40;45.30
12329;DHT22;6230;52.390;10.256;2023-04-25T12:55:40;14.60;45.00
12329;DHT22;6230;52.390;10.256;2023-04-25T12:58:06;14.60;44.90
12329;DHT22;6230;52.390;10.256;2023-04-25T13:00:32;14.60;45.00
12329;DHT22;6230;52.390;10.256;2023-04-25T13:02:58;14.60;45.00
12329;DHT22;6230;52.390;10.256;2023-04-25T13:05:24;14.70;45.40
12329;DHT22;6230;52.390;10.256;2023-04-25T13:07:50;14.70;45.50
12329;DHT22;6230;52.390;10.256;2023-04-25T13:10:16;14.70;45.30
12329;DHT22;6230;52.390;10.256;2023-04-25T13:12:43;14.50;45.20
12329;DHT22;6230;52.390;10.256;2023-04-25T13:15:09;14.30;45.50
12329;DHT22;6230;52.390;10.256;2023-04-25T13:17:37;14.30;45.70
12329;DHT22;6230;52.390;10.256;2023-04-25T13:20:04;14.30;45.80
12329;DHT22;6230;52.390;10.256;2023-04-25T13:22:31;14.20;45.50
12329;DHT22;6230;52.390;10.256;2023-04-25T13:24:57;14.20;45.20
12329;DHT22;6230;52.390;10.256;2023-04-25T13:27:22;14.10;44.90
12329;DHT22;6230;52.390;10.256;2023-04-25T13:29:48;14.20;44.90
12329;DHT22;6230;52.390;10.256;2023-04-25T13:32:13;14.20;44.80
12329;DHT22;6230;52.390;10.256;2023-04-25T13:34:39;14.30;44.50
12329;DHT22;6230;52.390;10.256;2023-04-25T13:37:04;14.20;44.50
12329;DHT22;6230;52.390;10.256;2023-04-25T13:39:30;14.20;44.50
12329;DHT22;6230;52.390;10.256;2023-04-25T13:41:55;14.20;44.40
12329;DHT22;6230;52.390;10.256;2023-04-25T13:44:21;14.40;44.40
12329;DHT22;6230;52.390;10.256;2023-04-25T13:46:47;14.50;44.10
12329;DHT22;6230;52.390;10.256;2023-04-25T13:49:12;14.70;43.80
12329;DHT22;6230;52.390;10.256;2023-04-25T13:51:38;14.90;43.30
12329;DHT22;6230;52.390;10.256;2023-04-25T13:54:04;14.90;42.90
12329;DHT22;6230;52.390;10.256;2023-04-25T13:56:29;14.90;42.80
12329;DHT22;6230;52.390;10.256;2023-04-25T13:58:55;14.70;42.70
12329;DHT22;6230;52.390;10.256;2023-04-25T14:01:22;14.70;43.00
12329;DHT22;6230;52.390;10.256;2023-04-25T14:03:47;14.50;43.20
12329;DHT22;6230;52.390;10.256;2023-04-25T14:06:13;14.40;43.60
12329;DHT22;6230;52.390;10.256;2023-04-25T14:08:39;14.40;44.00
12329;DHT22;6230;52.390;10.256;2023-04-25T14:11:04;14.50;44.20
12329;DHT22;6230;52.390;10.256;2023-04-25T14:13:30;14.60;44.20
12329;DHT22;6230;52.390;10.256;2023-04-25T14:15:55;14.70;44.40
12329;DHT22;6230;52.390;10.256;2023-04-25T14:18:21;14.70;44.40
12329;DHT22;6230;52.390;10.256;2023-04-25T14:20:47;14.80;44.50
12329;DHT22;6230;52.390;10.256;2023-04-25T14:23:12;14.90;44.60
12329;DHT22;6230;52.390;10.256;2023-04-25T14:25:39;14.90;45.00
12329;DHT22;6230;52.390;10.256;2023-04-25T14:28:05;14.90;45.50
12329;DHT22;6230;52.390;10.256;2023-04-25T14:30:31;14.90;46.00
12329;DHT22;6230;52.390;10.256;2023-04-25T14:32:57;14.80;46.40
12329;DHT22;6230;52.390;10.256;2023-04-25T14:35:22;14.70;46.80
12329;DHT22;6230;52.390;10.256;2023-04-25T14:37:48;14.60;47.20
12329;DHT22;6230;52.390;10.256;2023-04-25T14:40:13;14.40;47.40
12329;DHT22;6230;52.390;10.256;2023-04-25T14:42:40;14.40;47.50
12329;DHT22;6230;52.390;10.256;2023-04-25T14:45:07;14.30;47.70
12329;DHT22;6230;52.390;10.256;2023-04-25T14:47:34;14.30;47.80
12329;DHT22;6230;52.390;10.256;2023-04-25T14:50:00;14.20;47.90
12329;DHT22;6230;52.390;10.256;2023-04-25T14:52:26;14.20;48.10
12329;DHT22;6230;52.390;10.256;2023-04-25T14:54:52;14.20;48.10
12329;DHT22;6230;52.390;10.256;2023-04-25T14:57:17;14.20;48.20
12329;DHT22;6230;52.390;10.256;2023-04-25T14:59:44;14.20;48.20
12329;DHT22;6230;52.390;10.256;2023-04-25T15:02:09;14.20;48.10
12329;DHT22;6230;52.390;10.256;2023-04-25T15:04:36;14.20;48.20
12329;DHT22;6230;52.390;10.256;2023-04-25T15:07:01;14.30;48.20
12329;DHT22;6230;52.390;10.256;2023-04-25T15:09:27;14.30;48.00
12329;DHT22;6230;52.390;10.256;2023-04-25T15:11:52;14.40;47.80
12329;DHT22;6230;52.390;10.256;2023-04-25T15:14:18;14.40;47.50
12329;DHT22;6230;52.390;10.256;2023-04-25T15:16:43;14.40;47.20
12329;DHT22;6230;52.390;10.256;2023-04-25T15:19:09;14.40;47.00
12329;DHT22;6230;52.390;10.256;2023-04-25T15:21:35;14.40;46.80
12329;DHT22;6230;52.390;10.256;2023-04-25T15:24:00;14.40;46.80
12329;DHT22;6230;52.390;10.256;2023-04-25T15:26:26;14.30;46.70
12329;DHT22;6230;52.390;10.256;2023-04-25T15:28:52;14.20;46.80
12329;DHT22;6230;52.390;10.256;2023-04-25T15:31:18;14.00;46.90
12329;DHT22;6230;52.390;10.256;2023-04-25T15:33:43;13.90;47.10
12329;DHT22;6230;52.390;10.256;2023-04-25T15:36:09;13.70;47.40
12329;DHT22;6230;52.390;10.256;2023-04-25T15:38:35;13.60;47.90
12329;DHT22;6230;52.390;10.256;2023-04-25T15:41:01;13.40;48.30